sensor_id;sensor_type;location;lat;lon;timestamp;temperature;humidity
32139;DHT22;18644;48.700;9.210;2023-03-23T00:02:23;15.30;48.20
32139;DHT22;18644;48.700;9.210;2023-03-23T00:04:51;15.30;48.20
32139;DHT22;18644;48.700;9.210;2023-03-23T00:07:18;15.30;48.30
32139;DHT22;18644;48.700;9.210;2023-03-23T00:09:49;15.30;48.30
32139;DHT22;18644;48.700;9.210;2023-03-23T00:12:20;15.30;48.30
32139;DHT22;18644;48.700;9.210;2023-03-23T00:14:58;15.30;48.20
32139;DHT22;18644;48.700;9.210;2023-03-23T00:17:26;15.30;48.20
32139;DHT22;18644;48.700;9.210;2023-03-23T00:19:53;15.30;48.20
32139;DHT22;18644;48.700;9.210;2023-03-23T00:22:21;15.30;48.20
32139;DHT22;18644;48.700;9.210;2023-03-23T00:24:51;15.30;48.20
32139;DHT22;18644;48.700;9.210;2023-03-23T00:27:19;15.30;48.10
32139;DHT22;18644;48.700;9.210;2023-03-23T00:29:47;15.30;48.10
32139;DHT22;18644;48.700;9.210;2023-03-23T00:32:18;15.30;48.10
32139;DHT22;18644;48.700;9.210;2023-03-23T00:34:46;15.30;48.10
32139;DHT22;18644;48.700;9.210;2023-03-23T00:37:15;15.30;48.10
32139;DHT22;18644;48.700;9.210;2023-03-23T00:39:43;15.30;48.10
32139;DHT22;18644;48.700;9.210;2023-03-23T00:42:13;15.30;48.20
32139;DHT22;18644;48.700;9.210;2023-03-23T00:44:41;15.30;48.20
32139;DHT22;18644;48.700;9.210;2023-03-23T00:47:09;15.30;48.20
32139;DHT22;18644;48.700;9.210;2023-03-23T00:49:43;15.30;48.90
32139;DHT22;18644;48.700;9.210;2023-03-23T00:52:10;15.20;48.20
32139;DHT22;18644;48.700;9.210;2023-03-23T00:54:37;15.30;48.30
32139;DHT22;18644;48.700;9.210;2023-03-23T00:57:05;15.20;48.30
32139;DHT22;18644;48.700;9.210;2023-03-23T00:59:33;15.20;48.30
32139;DHT22;18644;48.700;9.210;2023-03-23T01:02:01;15.30;48.30
32139;DHT22;18644;48.700;9.210;2023-03-23T01:04:28;15.20;48.30
32139;DHT22;18644;48.700;9.210;2023-03-23T01:06:57;15.20;48.40
32139;DHT22;18644;48.700;9.210;2023-03-23T01:09:26;15.20;48.30
32139;DHT22;18644;48.700;9.210;2023-03-23T01:11:53;15.20;48.30
32139;DHT22;18644;48.700;9.210;2023-03-23T01:14:21;15.20;48.20
32139;DHT22;18644;48.700;9.210;2023-03-23T01:16:50;15.20;48.10
32139;DHT22;18644;48.700;9.210;2023-03-23T01:19:18;15.20;48.20
32139;DHT22;18644;48.700;9.210;2023-03-23T01:21:45;15.20;48.10
32139;DHT22;18644;48.700;9.210;2023-03-23T01:24:11;15.20;48.10
32139;DHT22;18644;48.700;9.210;2023-03-23T01:26:39;15.20;48.20
32139;DHT22;18644;48.700;9.210;2023-03-23T01:29:05;15.20;48.20
32139;DHT22;18644;48.700;9.210;2023-03-23T01:31:33;15.20;48.20
32139;DHT22;18644;48.700;9.210;2023-03-23T01:34:03;15.20;48.20
32139;DHT22;18644;48.700;9.210;2023-03-23T01:36:30;15.20;48.30
32139;DHT22;18644;48.700;9.210;2023-03-23T01:39:00;15.20;48.30
32139;DHT22;18644;48.700;9.210;2023-03-23T01:41:29;15.10;48.50
32139;DHT22;18644;48.700;9.210;2023-03-23T01:43:59;15.10;48.60
32139;DHT22;18644;48.700;9.210;2023-03-23T01:46:30;15.10;48.70
32139;DHT22;18644;48.700;9.210;2023-03-23T01:49:03;15.10;48.70
32139;DHT22;18644;48.700;9.210;2023-03-23T01:51:36;15.10;48.80
32139;DHT22;18644;48.700;9.210;2023-03-23T01:54:08;15.10;48.80
32139;DHT22;18644;48.700;9.210;2023-03-23T01:56:39;15.10;48.90
32139;DHT22;18644;48.700;9.210;2023-03-23T01:59:11;15.00;49.10
32139;DHT22;18644;48.700;9.210;2023-03-23T02:01:39;15.00;49.10
32139;DHT22;18644;48.700;9.210;2023-03-23T02:04:12;15.00;49.10
32139;DHT22;18644;48.700;9.210;2023-03-23T02:06:40;15.00;49.70
32139;DHT22;18644;48.700;9.210;2023-03-23T02:09:08;15.00;49.10
32139;DHT22;18644;48.700;9.210;2023-03-23T02:11:35;15.00;49.10
32139;DHT22;18644;48.700;9.210;2023-03-23T02:14:02;14.90;49.00
32139;DHT22;18644;48.700;9.210;2023-03-23T02:16:34;14.90;49.00
32139;DHT22;18644;48.700;9.210;2023-03-23T02:19:30;15.00;49.10
32139;DHT22;18644;48.700;9.210;2023-03-23T02:22:40;15.00;49.20
32139;DHT22;18644;48.700;9.210;2023-03-23T02:25:33;15.00;49.30
32139;DHT22;18644;48.700;9.210;2023-03-23T02:28:31;15.00;49.20
32139;DHT22;18644;48.700;9.210;2023-03-23T02:31:42;15.00;49.30
32139;DHT22;18644;48.700;9.210;2023-03-23T02:34:15;15.00;49.10
32139;DHT22;18644;48.700;9.210;2023-03-23T02:36:46;15.00;49.10
32139;DHT22;18644;48.700;9.210;2023-03-23T02:39:19;15.10;49.20
32139;DHT22;18644;48.700;9.210;2023-03-23T02:41:52;15.10;49.30
32139;DHT22;18644;48.700;9.210;2023-03-23T02:44:21;15.10;49.40
32139;DHT22;18644;48.700;9.210;2023-03-23T02:46:49;15.10;49.30
32139;DHT22;18644;48.700;9.210;2023-03-23T02:49:20;15.10;49.10
32139;DHT22;18644;48.700;9.210;2023-03-23T02:51:48;15.20;49.30
32139;DHT22;18644;48.700;9.210;2023-03-23T02:54:18;15.10;49.30
32139;DHT22;18644;48.700;9.210;2023-03-23T02:56:45;15.10;49.30
32139;DHT22;18644;48.700;9.210;2023-03-23T02:59:14;15.20;49.30
32139;DHT22;18644;48.700;9.210;2023-03-23T03:02:01;15.10;49.10
32139;DHT22;18644;48.700;9.210;2023-03-23T03:04:33;15.20;49.30
32139;DHT22;18644;48.700;9.210;2023-03-23T03:07:10;15.20;49.30
32139;DHT22;18644;48.700;9.210;2023-03-23T03:09:49;15.20;49.20
32139;DHT22;18644;48.700;9.210;2023-03-23T03:12:24;15.10;49.10
32139;DHT22;18644;48.700;9.210;2023-03-23T03:15:00;15.10;49.30
32139;DHT22;18644;48.700;9.210;2023-03-23T03:17:35;15.20;49.50
32139;DHT22;18644;48.700;9.210;2023-03-23T03:20:10;15.10;49.50
32139;DHT22;18644;48.700;9.210;2023-03-23T03:22:41;15.10;49.40
32139;DHT22;18644;48.700;9.210;2023-03-23T03:25:11;15.10;49.60
32139;DHT22;18644;48.700;9.210;2023-03-23T03:27:42;15.00;49.50
32139;DHT22;18644;48.700;9.210;2023-03-23T03:30:12;15.00;49.40
32139;DHT22;18644;48.700;9.210;2023-03-23T03:32:44;15.00;49.40
32139;DHT22;18644;48.700;9.210;2023-03-23T03:35:15;15.00;49.40
32139;DHT22;18644;48.700;9.210;2023-03-23T03:37:44;15.00;49.40
32139;DHT22;18644;48.700;9.210;2023-03-23T03:40:15;15.00;49.60
32139;DHT22;18644;48.700;9.210;2023-03-23T03:42:45;15.00;49.80
32139;DHT22;18644;48.700;9.210;2023-03-23T03:45:14;15.00;49.80
32139;DHT22;18644;48.700;9.210;2023-03-23T03:47:43;15.00;49.70
32139;DHT22;18644;48.700;9.210;2023-03-23T03:50:11;15.00;49.70
32139;DHT22;18644;48.700;9.210;2023-03-23T03:52:39;15.00;49.80
32139;DHT22;18644;48.700;9.210;2023-03-23T03:55:07;15.10;50.00
32139;DHT22;18644;48.700;9.210;2023-03-23T03:57:35;15.10;50.00
32139;DHT22;18644;48.700;9.210;2023-03-23T04:00:03;15.20;50.00
32139;DHT22;18644;48.700;9.210;2023-03-23T04:02:40;15.20;49.90
32139;DHT22;18644;48.700;9.210;2023-03-23T04:05:09;15.20;49.90
32139;DHT22;18644;48.700;9.210;2023-03-23T04:07:38;15.20;49.80
32139;DHT22;18644;48.700;9.210;2023-03-23T04:10:07;15.30;49.80
32139;DHT22;18644;48.700;9.210;2023-03-23T04:12:36;15.30;49.70
32139;DHT22;18644;48.700;9.210;2023-03-23T04:15:04;15.30;49.60
32139;DHT22;18644;48.700;9.210;2023-03-23T04:17:34;15.40;49.60
32139;DHT22;18644;48.700;9.210;2023-03-23T04:20:01;15.40;49.60
32139;DHT22;18644;48.700;9.210;2023-03-23T04:22:32;15.50;49.70
32139;DHT22;18644;48.700;9.210;2023-03-23T04:25:01;15.50;49.60
32139;DHT22;18644;48.700;9.210;2023-03-23T04:27:31;15.50;49.40
32139;DHT22;18644;48.700;9.210;2023-03-23T04:30:01;15.50;49.40
32139;DHT22;18644;48.700;9.210;2023-03-23T04:32:28;15.50;49.30
32139;DHT22;18644;48.700;9.210;2023-03-23T04:34:56;15.60;49.20
32139;DHT22;18644;48.700;9.210;2023-03-23T04:37:25;15.60;49.10
32139;DHT22;18644;48.700;9.210;2023-03-23T04:39:54;15.60;49.60
32139;DHT22;18644;48.700;9.210;2023-03-23T04:42:27;15.60;49.00
32139;DHT22;18644;48.700;9.210;2023-03-23T04:44:55;15.70;49.00
32139;DHT22;18644;48.700;9.210;2023-03-23T04:47:23;15.70;48.80
32139;DHT22;18644;48.700;9.210;2023-03-23T04:49:54;15.80;48.70
32139;DHT22;18644;48.700;9.210;2023-03-23T04:52:23;15.80;48.70
32139;DHT22;18644;48.700;9.210;2023-03-23T04:54:51;15.90;48.70
32139;DHT22;18644;48.700;9.210;2023-03-23T04:57:19;15.90;48.80
32139;DHT22;18644;48.700;9.210;2023-03-23T04:59:47;15.90;48.90
32139;DHT22;18644;48.700;9.210;2023-03-23T05:02:14;15.90;49.60
32139;DHT22;18644;48.700;9.210;2023-03-23T05:04:42;15.90;49.10
32139;DHT22;18644;48.700;9.210;2023-03-23T05:07:11;15.90;49.00
32139;DHT22;18644;48.700;9.210;2023-03-23T05:09:38;15.90;49.00
32139;DHT22;18644;48.700;9.210;2023-03-23T05:12:06;15.90;48.80
32139;DHT22;18644;48.700;9.210;2023-03-23T05:14:34;15.90;48.70
32139;DHT22;18644;48.700;9.210;2023-03-23T05:17:03;15.90;48.50
32139;DHT22;18644;48.700;9.210;2023-03-23T05:19:31;15.90;48.40
32139;DHT22;18644;48.700;9.210;2023-03-23T05:21:59;16.00;48.50
32139;DHT22;18644;48.700;9.210;2023-03-23T05:24:29;16.00;48.50
32139;DHT22;18644;48.700;9.210;2023-03-23T05:26:58;16.00;48.50
32139;DHT22;18644;48.700;9.210;2023-03-23T05:29:26;16.00;48.70
32139;DHT22;18644;48.700;9.210;2023-03-23T05:31:55;16.00;48.70
32139;DHT22;18644;48.700;9.210;2023-03-23T05:34:27;16.00;48.50
32139;DHT22;18644;48.700;9.210;2023-03-23T05:36:54;16.00;48.60
32139;DHT22;18644;48.700;9.210;2023-03-23T05:39:23;16.00;48.80
32139;DHT22;18644;48.700;9.210;2023-03-23T05:41:51;16.00;48.90
32139;DHT22;18644;48.700;9.210;2023-03-23T05:44:19;16.00;48.90
32139;DHT22;18644;48.700;9.210;2023-03-23T05:46:47;16.00;49.00
32139;DHT22;18644;48.700;9.210;2023-03-23T05:49:17;15.90;49.00
32139;DHT22;18644;48.700;9.210;2023-03-23T05:51:54;15.90;49.00
32139;DHT22;18644;48.700;9.210;2023-03-23T05:54:21;15.90;48.90
32139;DHT22;18644;48.700;9.210;2023-03-23T05:56:48;15.90;49.00
32139;DHT22;18644;48.700;9.210;2023-03-23T05:59:15;15.90;49.20
32139;DHT22;18644;48.700;9.210;2023-03-23T06:01:43;15.90;49.40
32139;DHT22;18644;48.700;9.210;2023-03-23T06:04:10;15.90;49.50
32139;DHT22;18644;48.700;9.210;2023-03-23T06:06:40;15.90;49.60
32139;DHT22;18644;48.700;9.210;2023-03-23T06:09:09;15.90;49.60
32139;DHT22;18644;48.700;9.210;2023-03-23T06:11:37;15.90;49.80
32139;DHT22;18644;48.700;9.210;2023-03-23T06:14:04;15.90;49.90
32139;DHT22;18644;48.700;9.210;2023-03-23T06:16:34;15.90;50.00
32139;DHT22;18644;48.700;9.210;2023-03-23T06:19:10;15.90;50.00
32139;DHT22;18644;48.700;9.210;2023-03-23T06:21:37;16.00;50.00
32139;DHT22;18644;48.700;9.210;2023-03-23T06:24:07;16.00;49.90
32139;DHT22;18644;48.700;9.210;2023-03-23T06:26:37;16.00;50.00
32139;DHT22;18644;48.700;9.210;2023-03-23T06:29:08;16.00;50.10
32139;DHT22;18644;48.700;9.210;2023-03-23T06:31:38;16.10;50.20
32139;DHT22;18644;48.700;9.210;2023-03-23T06:34:07;16.10;50.20
32139;DHT22;18644;48.700;9.210;2023-03-23T06:36:35;16.20;50.30
32139;DHT22;18644;48.700;9.210;2023-03-23T06:39:05;16.20;50.00
32139;DHT22;18644;48.700;9.210;2023-03-23T06:41:32;16.20;49.90
32139;DHT22;18644;48.700;9.210;2023-03-23T06:44:00;16.20;49.80
32139;DHT22;18644;48.700;9.210;2023-03-23T06:46:27;16.20;49.70
32139;DHT22;18644;48.700;9.210;2023-03-23T06:48:55;16.30;49.70
32139;DHT22;18644;48.700;9.210;2023-03-23T06:51:22;16.30;49.50
32139;DHT22;18644;48.700;9.210;2023-03-23T06:53:50;16.30;49.40
32139;DHT22;18644;48.700;9.210;2023-03-23T06:56:20;16.30;49.40
32139;DHT22;18644;48.700;9.210;2023-03-23T06:58:47;16.30;49.40
32139;DHT22;18644;48.700;9.210;2023-03-23T07:01:14;16.40;49.50
32139;DHT22;18644;48.700;9.210;2023-03-23T07:03:42;16.40;49.70
32139;DHT22;18644;48.700;9.210;2023-03-23T07:06:10;16.50;49.80
32139;DHT22;18644;48.700;9.210;2023-03-23T07:08:37;16.50;49.80
32139;DHT22;18644;48.700;9.210;2023-03-23T07:11:05;16.60;49.80
32139;DHT22;18644;48.700;9.210;2023-03-23T07:13:34;16.70;49.60
32139;DHT22;18644;48.700;9.210;2023-03-23T07:16:04;16.70;49.40
32139;DHT22;18644;48.700;9.210;2023-03-23T07:18:36;16.80;49.30
32139;DHT22;18644;48.700;9.210;2023-03-23T07:21:04;16.90;49.20
32139;DHT22;18644;48.700;9.210;2023-03-23T07:23:31;16.90;49.00
32139;DHT22;18644;48.700;9.210;2023-03-23T07:25:59;17.00;49.00
32139;DHT22;18644;48.700;9.210;2023-03-23T07:28:29;17.00;48.90
32139;DHT22;18644;48.700;9.210;2023-03-23T07:30:58;17.10;48.80
32139;DHT22;18644;48.700;9.210;2023-03-23T07:33:25;17.10;48.70
32139;DHT22;18644;48.700;9.210;2023-03-23T07:35:54;17.10;48.50
32139;DHT22;18644;48.700;9.210;2023-03-23T07:38:21;17.20;48.40
32139;DHT22;18644;48.700;9.210;2023-03-23T07:40:50;17.20;48.40
32139;DHT22;18644;48.700;9.210;2023-03-23T07:43:18;17.20;48.30
32139;DHT22;18644;48.700;9.210;2023-03-23T07:45:46;17.20;48.20
32139;DHT22;18644;48.700;9.210;2023-03-23T07:48:16;17.20;48.20
32139;DHT22;18644;48.700;9.210;2023-03-23T07:50:44;17.30;48.20
32139;DHT22;18644;48.700;9.210;2023-03-23T07:53:12;17.30;48.40
32139;DHT22;18644;48.700;9.210;2023-03-23T07:55:39;17.40;48.20
32139;DHT22;18644;48.700;9.210;2023-03-23T07:58:08;17.40;48.30
32139;DHT22;18644;48.700;9.210;2023-03-23T08:00:35;17.40;48.20
32139;DHT22;18644;48.700;9.210;2023-03-23T08:03:06;17.50;48.00
32139;DHT22;18644;48.700;9.210;2023-03-23T08:05:35;17.60;48.60
32139;DHT22;18644;48.700;9.210;2023-03-23T08:08:03;17.70;48.00
32139;DHT22;18644;48.700;9.210;2023-03-23T08:10:34;17.70;47.80
32139;DHT22;18644;48.700;9.210;2023-03-23T08:13:03;17.80;47.80
32139;DHT22;18644;48.700;9.210;2023-03-23T08:15:32;17.90;47.90
32139;DHT22;18644;48.700;9.210;2023-03-23T08:18:02;18.00;47.80
32139;DHT22;18644;48.700;9.210;2023-03-23T08:20:31;18.00;47.70
32139;DHT22;18644;48.700;9.210;2023-03-23T08:23:00;18.10;47.80
32139;DHT22;18644;48.700;9.210;2023-03-23T08:25:28;18.10;47.70
32139;DHT22;18644;48.700;9.210;2023-03-23T08:27:57;18.20;47.60
32139;DHT22;18644;48.700;9.210;2023-03-23T08:30:25;18.20;47.50
32139;DHT22;18644;48.700;9.210;2023-03-23T08:32:54;18.30;47.40
32139;DHT22;18644;48.700;9.210;2023-03-23T08:35:21;18.30;47.60
32139;DHT22;18644;48.700;9.210;2023-03-23T08:37:49;18.40;47.80
32139;DHT22;18644;48.700;9.210;2023-03-23T08:40:20;18.50;47.60
32139;DHT22;18644;48.700;9.210;2023-03-23T08:42:50;18.50;47.50
32139;DHT22;18644;48.700;9.210;2023-03-23T08:45:21;18.60;47.50
32139;DHT22;18644;48.700;9.210;2023-03-23T08:47:50;18.70;47.40
32139;DHT22;18644;48.700;9.210;2023-03-23T08:50:22;18.70;47.20
32139;DHT22;18644;48.700;9.210;2023-03-23T08:52:51;18.70;47.10
32139;DHT22;18644;48.700;9.210;2023-03-23T08:55:22;18.80;47.00
32139;DHT22;18644;48.700;9.210;2023-03-23T08:57:50;18.80;47.00
32139;DHT22;18644;48.700;9.210;2023-03-23T09:00:19;18.80;47.00
32139;DHT22;18644;48.700;9.210;2023-03-23T09:02:51;18.80;47.00
32139;DHT22;18644;48.700;9.210;2023-03-23T09:05:20;18.80;46.80
32139;DHT22;18644;48.700;9.210;2023-03-23T09:08:01;18.80;46.80
32139;DHT22;18644;48.700;9.210;2023-03-23T09:10:29;18.70;46.80
32139;DHT22;18644;48.700;9.210;2023-03-23T09:12:57;18.70;46.90
32139;DHT22;18644;48.700;9.210;2023-03-23T09:15:25;18.80;47.00
32139;DHT22;18644;48.700;9.210;2023-03-23T09:17:53;18.80;47.10
32139;DHT22;18644;48.700;9.210;2023-03-23T09:20:23;18.80;47.20
32139;DHT22;18644;48.700;9.210;2023-03-23T09:22:54;18.90;47.30
32139;DHT22;18644;48.700;9.210;2023-03-23T09:25:26;18.90;47.60
32139;DHT22;18644;48.700;9.210;2023-03-23T09:27:54;19.00;47.80
32139;DHT22;18644;48.700;9.210;2023-03-23T09:30:25;19.10;47.80
32139;DHT22;18644;48.700;9.210;2023-03-23T09:32:54;19.20;47.80
32139;DHT22;18644;48.700;9.210;2023-03-23T09:35:22;19.30;47.70
32139;DHT22;18644;48.700;9.210;2023-03-23T09:37:51;19.30;47.20
32139;DHT22;18644;48.700;9.210;2023-03-23T09:40:21;19.40;47.10
32139;DHT22;18644;48.700;9.210;2023-03-23T09:43:18;19.40;47.10
32139;DHT22;18644;48.700;9.210;2023-03-23T09:46:11;19.40;47.10
32139;DHT22;18644;48.700;9.210;2023-03-23T09:48:50;19.50;47.00
32139;DHT22;18644;48.700;9.210;2023-03-23T09:51:37;19.50;46.70
32139;DHT22;18644;48.700;9.210;2023-03-23T09:54:21;19.50;46.80
32139;DHT22;18644;48.700;9.210;2023-03-23T09:56:59;19.50;46.50
32139;DHT22;18644;48.700;9.210;2023-03-23T09:59:37;19.60;47.00
32139;DHT22;18644;48.700;9.210;2023-03-23T10:02:12;19.60;47.30
32139;DHT22;18644;48.700;9.210;2023-03-23T10:04:45;19.60;47.00
32139;DHT22;18644;48.700;9.210;2023-03-23T10:07:15;19.60;46.80
32139;DHT22;18644;48.700;9.210;2023-03-23T10:09:45;19.70;47.00
32139;DHT22;18644;48.700;9.210;2023-03-23T10:12:22;19.70;47.50
32139;DHT22;18644;48.700;9.210;2023-03-23T10:15:04;19.80;48.10
32139;DHT22;18644;48.700;9.210;2023-03-23T10:17:42;19.90;48.30
32139;DHT22;18644;48.700;9.210;2023-03-23T10:20:30;20.00;47.80
32139;DHT22;18644;48.700;9.210;2023-03-23T10:23:09;20.20;47.00
32139;DHT22;18644;48.700;9.210;2023-03-23T10:25:52;20.30;46.70
32139;DHT22;18644;48.700;9.210;2023-03-23T10:28:36;20.30;46.40
32139;DHT22;18644;48.700;9.210;2023-03-23T10:31:08;20.30;46.40
32139;DHT22;18644;48.700;9.210;2023-03-23T10:33:40;20.40;46.70
32139;DHT22;18644;48.700;9.210;2023-03-23T10:36:12;20.40;47.00
32139;DHT22;18644;48.700;9.210;2023-03-23T10:38:48;20.40;47.10
32139;DHT22;18644;48.700;9.210;2023-03-23T10:41:19;20.50;46.30
32139;DHT22;18644;48.700;9.210;2023-03-23T10:43:49;20.50;45.90
32139;DHT22;18644;48.700;9.210;2023-03-23T10:46:26;20.50;45.60
32139;DHT22;18644;48.700;9.210;2023-03-23T10:49:00;20.50;45.50
32139;DHT22;18644;48.700;9.210;2023-03-23T10:51:33;20.50;45.40
32139;DHT22;18644;48.700;9.210;2023-03-23T10:54:03;20.40;45.60
32139;DHT22;18644;48.700;9.210;2023-03-23T10:56:36;20.40;45.50
32139;DHT22;18644;48.700;9.210;2023-03-23T10:59:27;20.40;45.90
32139;DHT22;18644;48.700;9.210;2023-03-23T11:02:00;20.50;45.80
32139;DHT22;18644;48.700;9.210;2023-03-23T11:04:36;20.50;46.30
32139;DHT22;18644;48.700;9.210;2023-03-23T11:07:03;20.60;46.20
32139;DHT22;18644;48.700;9.210;2023-03-23T11:09:36;20.60;46.40
32139;DHT22;18644;48.700;9.210;2023-03-23T11:12:15;20.70;46.10
32139;DHT22;18644;48.700;9.210;2023-03-23T11:15:09;20.80;45.70
32139;DHT22;18644;48.700;9.210;2023-03-23T11:17:54;20.80;45.60
32139;DHT22;18644;48.700;9.210;2023-03-23T11:20:22;20.80;45.80
32139;DHT22;18644;48.700;9.210;2023-03-23T11:22:49;20.90;46.10
32139;DHT22;18644;48.700;9.210;2023-03-23T11:25:20;20.90;46.10
32139;DHT22;18644;48.700;9.210;2023-03-23T11:28:15;20.90;45.90
32139;DHT22;18644;48.700;9.210;2023-03-23T11:30:57;21.00;45.70
32139;DHT22;18644;48.700;9.210;2023-03-23T11:33:29;21.00;45.60
32139;DHT22;18644;48.700;9.210;2023-03-23T11:35:59;21.00;45.60
32139;DHT22;18644;48.700;9.210;2023-03-23T11:38:26;21.00;45.60
32139;DHT22;18644;48.700;9.210;2023-03-23T11:40:54;20.90;45.70
32139;DHT22;18644;48.700;9.210;2023-03-23T11:43:22;20.90;45.90
32139;DHT22;18644;48.700;9.210;2023-03-23T11:46:04;20.90;46.10
32139;DHT22;18644;48.700;9.210;2023-03-23T11:48:38;20.90;46.20
32139;DHT22;18644;48.700;9.210;2023-03-23T11:51:12;21.00;46.50
32139;DHT22;18644;48.700;9.210;2023-03-23T11:53:47;21.00;46.60
32139;DHT22;18644;48.700;9.210;2023-03-23T11:56:22;21.10;46.50
32139;DHT22;18644;48.700;9.210;2023-03-23T11:58:53;21.10;46.30
32139;DHT22;18644;48.700;9.210;2023-03-23T12:01:33;21.20;46.20
32139;DHT22;18644;48.700;9.210;2023-03-23T12:04:33;21.20;45.90
32139;DHT22;18644;48.700;9.210;2023-03-23T12:07:17;21.20;45.90
32139;DHT22;18644;48.700;9.210;2023-03-23T12:09:59;21.30;46.10
32139;DHT22;18644;48.700;9.210;2023-03-23T12:12:37;21.40;46.00
32139;DHT22;18644;48.700;9.210;2023-03-23T12:15:16;21.50;45.90
32139;DHT22;18644;48.700;9.210;2023-03-23T12:17:59;21.50;45.80
32139;DHT22;18644;48.700;9.210;2023-03-23T12:20:38;21.60;45.10
32139;DHT22;18644;48.700;9.210;2023-03-23T12:23:19;21.60;45.00
32139;DHT22;18644;48.700;9.210;2023-03-23T12:26:04;21.60;44.50
32139;DHT22;18644;48.700;9.210;2023-03-23T12:28:59;21.60;44.50
32139;DHT22;18644;48.700;9.210;2023-03-23T12:31:46;21.60;44.40
32139;DHT22;18644;48.700;9.210;2023-03-23T12:34:33;21.50;44.20
32139;DHT22;18644;48.700;9.210;2023-03-23T12:37:24;21.50;44.90
32139;DHT22;18644;48.700;9.210;2023-03-23T12:40:11;21.50;44.40
32139;DHT22;18644;48.700;9.210;2023-03-23T12:42:54;21.50;44.30
32139;DHT22;18644;48.700;9.210;2023-03-23T12:45:47;21.50;44.10
32139;DHT22;18644;48.700;9.210;2023-03-23T12:48:23;21.40;44.20
32139;DHT22;18644;48.700;9.210;2023-03-23T12:51:09;21.40;44.20
32139;DHT22;18644;48.700;9.210;2023-03-23T12:53:46;21.40;44.20
32139;DHT22;18644;48.700;9.210;2023-03-23T12:56:21;21.40;44.40
32139;DHT22;18644;48.700;9.210;2023-03-23T12:59:02;21.50;44.50
32139;DHT22;18644;48.700;9.210;2023-03-23T13:01:39;21.40;44.40
32139;DHT22;18644;48.700;9.210;2023-03-23T13:04:08;21.50;44.40
32139;DHT22;18644;48.700;9.210;2023-03-23T13:06:41;21.50;44.20
32139;DHT22;18644;48.700;9.210;2023-03-23T13:09:11;21.60;44.10
32139;DHT22;18644;48.700;9.210;2023-03-23T13:11:43;21.60;44.10
32139;DHT22;18644;48.700;9.210;2023-03-23T13:14:26;21.60;44.30
32139;DHT22;18644;48.700;9.210;2023-03-23T13:17:07;21.60;43.90
32139;DHT22;18644;48.700;9.210;2023-03-23T13:19:56;21.60;43.80
32139;DHT22;18644;48.700;9.210;2023-03-23T13:22:37;21.60;43.50
32139;DHT22;18644;48.700;9.210;2023-03-23T13:25:13;21.60;43.50
32139;DHT22;18644;48.700;9.210;2023-03-23T13:27:42;21.60;43.60
32139;DHT22;18644;48.700;9.210;2023-03-23T13:30:19;21.60;43.60
32139;DHT22;18644;48.700;9.210;2023-03-23T13:32:50;21.60;43.20
32139;DHT22;18644;48.700;9.210;2023-03-23T13:35:19;21.60;43.40
32139;DHT22;18644;48.700;9.210;2023-03-23T13:37:51;21.60;43.70
32139;DHT22;18644;48.700;9.210;2023-03-23T13:40:25;21.60;43.80
32139;DHT22;18644;48.700;9.210;2023-03-23T13:42:55;21.70;43.70
32139;DHT22;18644;48.700;9.210;2023-03-23T13:45:35;21.70;43.40
32139;DHT22;18644;48.700;9.210;2023-03-23T13:48:05;21.70;43.30
32139;DHT22;18644;48.700;9.210;2023-03-23T13:50:51;21.70;43.20
32139;DHT22;18644;48.700;9.210;2023-03-23T13:53:27;21.70;43.00
32139;DHT22;18644;48.700;9.210;2023-03-23T13:56:15;21.70;43.10
32139;DHT22;18644;48.700;9.210;2023-03-23T13:58:47;21.70;43.40
32139;DHT22;18644;48.700;9.210;2023-03-23T14:01:19;21.70;43.40
32139;DHT22;18644;48.700;9.210;2023-03-23T14:04:01;21.70;43.30
32139;DHT22;18644;48.700;9.210;2023-03-23T14:06:34;21.80;43.30
32139;DHT22;18644;48.700;9.210;2023-03-23T14:09:10;21.80;43.00
32139;DHT22;18644;48.700;9.210;2023-03-23T14:11:49;21.80;42.70
32139;DHT22;18644;48.700;9.210;2023-03-23T14:14:26;21.80;42.60
32139;DHT22;18644;48.700;9.210;2023-03-23T14:17:06;21.80;42.10
32139;DHT22;18644;48.700;9.210;2023-03-23T14:19:38;21.70;41.80
32139;DHT22;18644;48.700;9.210;2023-03-23T14:22:18;21.70;42.30
32139;DHT22;18644;48.700;9.210;2023-03-23T14:24:48;21.60;42.30
32139;DHT22;18644;48.700;9.210;2023-03-23T14:27:17;21.60;42.20
32139;DHT22;18644;48.700;9.210;2023-03-23T14:29:46;21.50;41.90
32139;DHT22;18644;48.700;9.210;2023-03-23T14:32:24;21.50;41.80
32139;DHT22;18644;48.700;9.210;2023-03-23T14:34:53;21.40;41.90
32139;DHT22;18644;48.700;9.210;2023-03-23T14:37:21;21.40;41.60
32139;DHT22;18644;48.700;9.210;2023-03-23T14:39:55;21.30;41.70
32139;DHT22;18644;48.700;9.210;2023-03-23T14:42:27;21.20;41.60
32139;DHT22;18644;48.700;9.210;2023-03-23T14:44:57;21.20;41.80
32139;DHT22;18644;48.700;9.210;2023-03-23T14:47:29;21.10;41.70
32139;DHT22;18644;48.700;9.210;2023-03-23T14:49:59;21.10;41.80
32139;DHT22;18644;48.700;9.210;2023-03-23T14:52:32;21.00;41.50
32139;DHT22;18644;48.700;9.210;2023-03-23T14:55:14;21.00;41.60
32139;DHT22;18644;48.700;9.210;2023-03-23T14:57:43;21.00;41.70
32139;DHT22;18644;48.700;9.210;2023-03-23T15:00:14;20.90;41.90
32139;DHT22;18644;48.700;9.210;2023-03-23T15:02:45;20.90;42.10
32139;DHT22;18644;48.700;9.210;2023-03-23T15:05:16;20.90;42.10
32139;DHT22;18644;48.700;9.210;2023-03-23T15:07:50;20.90;42.00
32139;DHT22;18644;48.700;9.210;2023-03-23T15:10:22;20.90;41.80
32139;DHT22;18644;48.700;9.210;2023-03-23T15:12:52;20.90;41.80
32139;DHT22;18644;48.700;9.210;2023-03-23T15:15:26;20.90;41.80
32139;DHT22;18644;48.700;9.210;2023-03-23T15:17:55;20.80;41.80
32139;DHT22;18644;48.700;9.210;2023-03-23T15:20:26;20.90;41.90
32139;DHT22;18644;48.700;9.210;2023-03-23T15:22:56;20.90;42.10
32139;DHT22;18644;48.700;9.210;2023-03-23T15:25:30;20.90;42.10
32139;DHT22;18644;48.700;9.210;2023-03-23T15:28:12;20.80;42.00
32139;DHT22;18644;48.700;9.210;2023-03-23T15:30:50;20.80;41.90
32139;DHT22;18644;48.700;9.210;2023-03-23T15:33:18;20.80;41.90
32139;DHT22;18644;48.700;9.210;2023-03-23T15:35:53;20.80;41.70
32139;DHT22;18644;48.700;9.210;2023-03-23T15:38:22;20.80;41.80
32139;DHT22;18644;48.700;9.210;2023-03-23T15:40:54;20.70;41.60
32139;DHT22;18644;48.700;9.210;2023-03-23T15:43:25;20.70;42.20
32139;DHT22;18644;48.700;9.210;2023-03-23T15:45:55;20.70;41.60
32139;DHT22;18644;48.700;9.210;2023-03-23T15:48:26;20.60;41.60
32139;DHT22;18644;48.700;9.210;2023-03-23T15:50:54;20.50;41.70
32139;DHT22;18644;48.700;9.210;2023-03-23T15:53:36;20.50;41.80
32139;DHT22;18644;48.700;9.210;2023-03-23T15:56:15;20.50;41.80
32139;DHT22;18644;48.700;9.210;2023-03-23T15:58:44;20.40;41.70
32139;DHT22;18644;48.700;9.210;2023-03-23T16:01:15;20.40;42.00
32139;DHT22;18644;48.700;9.210;2023-03-23T16:03:47;20.40;42.10